Terminal Aerodrome Forecast
Issued by NWS

Home | Current Version | Previous Version | Text Only | Print | Product List | Glossary Off
Versions: 1 2 3 4 5 6 7 8 9 10 11 12 13 14

844
FTUS43 KGRB 021730
TAFATW
TAF
KATW 021730Z 0218/0318 02007KT P6SM SCT050
      TEMPO 0222/0302 BKN050
     FM030200 19003KT P6SM SCT050
     FM031500 25012G20KT P6SM SCT040 OVC100=

USA.gov is the U.S. government's official web portal to all federal, state and local government web resources and services.